createdAt,value
2018-02-14T00:00:36.986Z,985.63
2018-02-14T00:01:36.972Z,985.62
2018-02-14T00:02:36.959Z,985.66
2018-02-14T00:03:36.943Z,985.63
2018-02-14T00:04:36.939Z,985.65
2018-02-14T00:05:36.963Z,985.68
2018-02-14T00:06:36.910Z,985.70
2018-02-14T00:07:36.896Z,985.64
2018-02-14T00:08:36.882Z,985.70
2018-02-14T00:09:36.870Z,985.69
2018-02-14T00:10:36.850Z,985.68
2018-02-14T00:11:36.844Z,985.67
2018-02-14T00:12:36.831Z,985.68
2018-02-14T00:13:36.818Z,985.69
2018-02-14T00:14:36.806Z,985.69
2018-02-14T00:15:36.806Z,985.68
2018-02-14T00:16:36.776Z,985.69
2018-02-14T00:17:36.767Z,985.67
2018-02-14T00:18:36.754Z,985.64
2018-02-14T00:19:36.726Z,985.66
2018-02-14T00:20:36.728Z,985.67
2018-02-14T00:21:36.714Z,985.70
2018-02-14T00:22:36.702Z,985.73
2018-02-14T00:23:36.688Z,985.72
2018-02-14T00:24:36.676Z,985.70
2018-02-14T00:25:36.661Z,985.75
2018-02-14T00:26:36.646Z,985.74
2018-02-14T00:27:36.643Z,985.76
2018-02-14T00:28:36.624Z,985.78
2018-02-14T00:29:36.611Z,985.79
2018-02-14T00:30:36.598Z,985.82
2018-02-14T00:31:36.584Z,985.79
2018-02-14T00:32:36.572Z,985.83
2018-02-14T00:33:36.600Z,985.82
2018-02-14T00:34:36.600Z,985.83
2018-02-14T00:35:36.533Z,985.83
2018-02-14T00:36:36.519Z,985.82
2018-02-14T00:37:36.535Z,985.85
2018-02-14T00:38:36.495Z,985.85
2018-02-14T00:39:36.525Z,985.81
2018-02-14T00:40:36.468Z,985.84
2018-02-14T00:41:36.455Z,985.82
2018-02-14T00:42:36.449Z,985.87
2018-02-14T00:43:36.435Z,985.82
2018-02-14T00:44:36.419Z,985.82
2018-02-14T00:45:36.404Z,985.83
2018-02-14T00:46:36.390Z,985.90
2018-02-14T00:47:36.376Z,985.87
2018-02-14T00:48:36.364Z,985.88
2018-02-14T00:49:36.352Z,985.91
2018-02-14T00:50:36.339Z,985.89
2018-02-14T00:51:36.324Z,985.90
2018-02-14T00:52:36.313Z,985.87
2018-02-14T00:53:36.301Z,985.91
2018-02-14T00:54:36.274Z,985.93
2018-02-14T00:55:36.276Z,985.95
2018-02-14T00:56:36.260Z,985.96
2018-02-14T00:57:36.245Z,985.97
2018-02-14T00:58:36.242Z,985.99
2018-02-14T00:59:36.226Z,985.99
2018-02-14T01:00:36.208Z,985.98
2018-02-14T01:01:36.196Z,986.02
2018-02-14T01:02:36.182Z,986.00
2018-02-14T01:03:36.182Z,986.05
2018-02-14T01:04:36.157Z,986.07
2018-02-14T01:05:36.144Z,986.08
2018-02-14T01:06:36.132Z,986.12
2018-02-14T01:07:36.119Z,986.11
2018-02-14T01:08:36.107Z,986.08
2018-02-14T01:09:36.134Z,986.10
2018-02-14T01:10:36.080Z,986.10
2018-02-14T01:11:36.094Z,986.11
2018-02-14T01:12:36.053Z,986.13
2018-02-14T01:13:36.042Z,986.13
2018-02-14T01:14:36.028Z,986.13
2018-02-14T01:15:36.034Z,986.14
2018-02-14T01:16:36.001Z,986.16
2018-02-14T01:17:35.989Z,986.19
2018-02-14T01:18:35.977Z,986.19
2018-02-14T01:19:35.974Z,986.19
2018-02-14T01:20:35.959Z,986.19
2018-02-14T01:21:35.937Z,986.20
2018-02-14T01:22:35.925Z,986.22
2018-02-14T01:23:35.914Z,986.23
2018-02-14T01:24:35.897Z,986.25
2018-02-14T01:25:35.885Z,986.21
2018-02-14T01:26:35.873Z,986.22
2018-02-14T01:27:35.886Z,986.24
2018-02-14T01:28:35.848Z,986.23
2018-02-14T01:29:35.833Z,986.23
2018-02-14T01:30:35.821Z,986.26
2018-02-14T01:31:35.826Z,986.28
2018-02-14T01:32:35.794Z,986.29
2018-02-14T01:33:35.782Z,986.28
2018-02-14T01:34:35.768Z,986.31
2018-02-14T01:35:35.753Z,986.34
2018-02-14T01:36:35.739Z,986.35
2018-02-14T01:37:35.736Z,986.37
2018-02-14T01:38:35.717Z,986.37
2018-02-14T01:39:35.701Z,986.37
2018-02-14T01:40:35.689Z,986.37
2018-02-14T01:41:35.677Z,986.35
2018-02-14T01:42:35.663Z,986.34
2018-02-14T01:43:35.647Z,986.33
2018-02-14T01:44:35.635Z,986.33
2018-02-14T01:45:35.633Z,986.34
2018-02-14T01:46:35.613Z,986.33
2018-02-14T01:47:35.603Z,986.36
2018-02-14T01:48:35.586Z,986.37
2018-02-14T01:49:35.573Z,986.38
2018-02-14T01:50:35.557Z,986.39
2018-02-14T01:51:35.548Z,986.42
2018-02-14T01:52:35.534Z,986.37
2018-02-14T01:53:35.528Z,986.41
2018-02-14T01:54:35.511Z,986.43
2018-02-14T01:55:35.512Z,986.44
2018-02-14T01:56:35.482Z,986.44
2018-02-14T01:57:35.469Z,986.40
2018-02-14T01:58:35.456Z,986.41
2018-02-14T01:59:35.444Z,986.43
2018-02-14T02:00:35.430Z,986.43
2018-02-14T02:01:35.429Z,986.43
2018-02-14T02:02:35.415Z,986.46
2018-02-14T02:03:35.411Z,986.43
2018-02-14T02:04:35.378Z,986.48
2018-02-14T02:05:35.365Z,986.47
2018-02-14T02:06:35.353Z,986.51
2018-02-14T02:07:35.365Z,986.54
2018-02-14T02:08:35.330Z,986.51
2018-02-14T02:09:35.306Z,986.51
2018-02-14T02:10:35.302Z,986.53
2018-02-14T02:11:35.287Z,986.56
2018-02-14T02:12:35.275Z,986.53
2018-02-14T02:13:35.263Z,986.55
2018-02-14T02:14:35.249Z,986.52
2018-02-14T02:15:35.236Z,986.55
2018-02-14T02:16:35.224Z,986.54
2018-02-14T02:17:35.198Z,986.52
2018-02-14T02:18:35.206Z,986.57
2018-02-14T02:19:35.185Z,986.57
2018-02-14T02:20:35.180Z,986.54
2018-02-14T02:21:35.164Z,986.58
2018-02-14T02:22:35.190Z,986.57
2018-02-14T02:23:35.132Z,986.59
2018-02-14T02:24:35.120Z,986.63
2018-02-14T02:25:35.107Z,986.62
2018-02-14T02:26:35.095Z,986.64
2018-02-14T02:27:35.082Z,986.63
2018-02-14T02:28:35.056Z,986.63
2018-02-14T02:29:35.056Z,986.66
2018-02-14T02:30:35.043Z,986.66
2018-02-14T02:31:35.030Z,986.64
2018-02-14T02:32:35.018Z,986.67
2018-02-14T02:33:35.016Z,986.65
2018-02-14T02:34:34.992Z,986.63
2018-02-14T02:35:34.981Z,986.66
2018-02-14T02:36:34.966Z,986.61
2018-02-14T02:37:34.956Z,986.65
2018-02-14T02:38:34.935Z,986.68
2018-02-14T02:39:34.928Z,986.64
2018-02-14T02:40:34.915Z,986.70
2018-02-14T02:41:34.902Z,986.69
2018-02-14T02:42:34.888Z,986.67
2018-02-14T02:43:34.876Z,986.67
2018-02-14T02:44:34.850Z,986.67
2018-02-14T02:45:34.845Z,986.71
2018-02-14T02:46:34.833Z,986.70
2018-02-14T02:47:34.830Z,986.71
2018-02-14T02:48:34.811Z,986.70
2018-02-14T02:49:34.789Z,986.70
2018-02-14T02:50:34.845Z,986.69
2018-02-14T02:51:34.773Z,986.70
2018-02-14T02:52:34.762Z,986.66
2018-02-14T02:53:34.748Z,986.67
2018-02-14T02:54:34.741Z,986.68
2018-02-14T02:55:34.721Z,986.68
2018-02-14T02:56:34.711Z,986.69
2018-02-14T02:57:34.696Z,986.70
2018-02-14T02:58:34.674Z,986.71
2018-02-14T02:59:34.693Z,986.67
2018-02-14T03:00:34.658Z,986.67
2018-02-14T03:01:34.644Z,986.71
2018-02-14T03:02:34.650Z,986.70
2018-02-14T03:03:34.619Z,986.69
2018-02-14T03:04:34.604Z,986.72
2018-02-14T03:05:34.591Z,986.71
2018-02-14T03:06:34.570Z,986.71
2018-02-14T03:07:34.565Z,986.76
2018-02-14T03:08:34.557Z,986.75
2018-02-14T03:09:34.539Z,986.78
2018-02-14T03:10:34.531Z,986.76
2018-02-14T03:11:34.518Z,986.78
2018-02-14T03:12:34.503Z,986.78
2018-02-14T03:13:34.487Z,986.77
2018-02-14T03:14:34.475Z,986.74
2018-02-14T03:15:34.461Z,986.77
2018-02-14T03:16:34.446Z,986.79
2018-02-14T03:17:34.438Z,986.80
2018-02-14T03:18:34.451Z,986.84
2018-02-14T03:19:34.409Z,986.81
2018-02-14T03:20:34.399Z,986.85
2018-02-14T03:21:34.384Z,986.85
2018-02-14T03:22:34.371Z,986.86
2018-02-14T03:23:34.391Z,986.88
2018-02-14T03:24:34.339Z,986.89
2018-02-14T03:25:34.339Z,986.87
2018-02-14T03:26:34.319Z,986.88
2018-02-14T03:27:34.307Z,986.91
2018-02-14T03:28:34.292Z,986.88
2018-02-14T03:29:34.279Z,986.89
2018-02-14T03:30:34.266Z,986.90
2018-02-14T03:31:34.253Z,986.91
2018-02-14T03:32:34.241Z,986.91
2018-02-14T03:33:34.232Z,986.92
2018-02-14T03:34:34.214Z,986.90
2018-02-14T03:35:34.199Z,986.88
2018-02-14T03:36:34.187Z,986.88
2018-02-14T03:37:34.174Z,986.89
2018-02-14T03:38:34.165Z,986.90
2018-02-14T03:39:34.148Z,986.85
2018-02-14T03:40:34.137Z,986.88
2018-02-14T03:41:34.161Z,986.85
2018-02-14T03:42:34.106Z,986.90
2018-02-14T03:43:34.096Z,986.89
2018-02-14T03:44:34.083Z,986.87
2018-02-14T03:45:34.070Z,986.88
2018-02-14T03:46:34.057Z,986.92
2018-02-14T03:47:34.034Z,986.89
2018-02-14T03:48:34.029Z,986.88
2018-02-14T03:49:34.019Z,986.89
2018-02-14T03:50:34.005Z,986.94
2018-02-14T03:51:34.001Z,986.90
2018-02-14T03:52:33.984Z,986.92
2018-02-14T03:53:33.966Z,986.90
2018-02-14T03:54:33.952Z,986.94
2018-02-14T03:55:33.938Z,986.96
2018-02-14T03:56:33.926Z,986.95
2018-02-14T03:57:33.912Z,986.99
2018-02-14T03:58:33.913Z,987.01
2018-02-14T03:59:33.884Z,987.03
2018-02-14T04:00:33.873Z,987.01
2018-02-14T04:01:33.860Z,987.04
2018-02-14T04:02:33.847Z,987.06
2018-02-14T04:03:33.833Z,987.06
2018-02-14T04:04:33.821Z,987.08
2018-02-14T04:05:33.807Z,987.08
2018-02-14T04:06:33.808Z,987.09
2018-02-14T04:07:33.781Z,987.14
2018-02-14T04:08:33.763Z,987.18
2018-02-14T04:09:33.756Z,987.15
2018-02-14T04:10:33.743Z,987.17
2018-02-14T04:11:33.730Z,987.18
2018-02-14T04:12:33.716Z,987.23
2018-02-14T04:13:33.703Z,987.28
2018-02-14T04:14:33.690Z,987.24
2018-02-14T04:15:33.676Z,987.26
2018-02-14T04:16:33.662Z,987.29
2018-02-14T04:17:33.650Z,987.28
2018-02-14T04:18:33.655Z,987.27
2018-02-14T04:19:33.626Z,987.33
2018-02-14T04:20:33.611Z,987.28
2018-02-14T04:21:33.597Z,987.29
2018-02-14T04:22:33.586Z,987.32
2018-02-14T04:23:33.571Z,987.36
2018-02-14T04:24:33.550Z,987.34
2018-02-14T04:25:33.546Z,987.39
2018-02-14T04:26:33.537Z,987.38
2018-02-14T04:27:33.521Z,987.37
2018-02-14T04:28:33.507Z,987.37
2018-02-14T04:29:33.508Z,987.39
2018-02-14T04:30:33.482Z,987.40
2018-02-14T04:31:33.465Z,987.41
2018-02-14T04:32:33.439Z,987.41
2018-02-14T04:33:33.442Z,987.41
2018-02-14T04:34:33.433Z,987.44
2018-02-14T04:35:33.414Z,987.42
2018-02-14T04:36:33.401Z,987.47
2018-02-14T04:37:33.381Z,987.44
2018-02-14T04:38:33.384Z,987.46
2018-02-14T04:39:33.363Z,987.47
2018-02-14T04:40:33.356Z,987.45
2018-02-14T04:41:33.330Z,987.49
2018-02-14T04:42:33.319Z,987.50
2018-02-14T04:43:33.316Z,987.50
2018-02-14T04:44:33.299Z,987.53
2018-02-14T04:45:33.284Z,987.53
2018-02-14T04:46:33.271Z,987.53
2018-02-14T04:47:33.256Z,987.58
2018-02-14T04:48:33.244Z,987.59
2018-02-14T04:49:33.231Z,987.59
2018-02-14T04:50:33.222Z,987.59
2018-02-14T04:51:33.204Z,987.62
2018-02-14T04:52:33.191Z,987.61
2018-02-14T04:53:33.180Z,987.65
2018-02-14T04:54:33.170Z,987.64
2018-02-14T04:55:33.155Z,987.68
2018-02-14T04:56:33.139Z,987.67
2018-02-14T04:57:33.126Z,987.66
2018-02-14T04:58:33.113Z,987.65
2018-02-14T04:59:33.090Z,987.69
2018-02-14T05:00:33.075Z,987.69
2018-02-14T05:01:33.076Z,987.70
2018-02-14T05:02:33.061Z,987.75
2018-02-14T05:03:33.048Z,987.72
2018-02-14T05:04:33.036Z,987.76
2018-02-14T05:05:33.022Z,987.77
2018-02-14T05:06:33.009Z,987.76
2018-02-14T05:07:32.996Z,987.79
2018-02-14T05:08:32.983Z,987.82
2018-02-14T05:09:33.013Z,987.82
2018-02-14T05:10:32.956Z,987.81
2018-02-14T05:11:32.943Z,987.83
2018-02-14T05:12:32.928Z,987.81
2018-02-14T05:13:32.916Z,987.86
2018-02-14T05:14:32.903Z,987.86
2018-02-14T05:15:32.889Z,987.87
2018-02-14T05:16:32.877Z,987.91
2018-02-14T05:17:32.864Z,987.93
2018-02-14T05:18:32.852Z,988.00
2018-02-14T05:19:32.837Z,987.95
2018-02-14T05:20:32.823Z,987.99
2018-02-14T05:21:32.812Z,987.95
2018-02-14T05:22:32.798Z,987.98
2018-02-14T05:23:32.785Z,988.03
2018-02-14T05:24:32.771Z,988.02
2018-02-14T05:25:32.760Z,988.04
2018-02-14T05:26:32.745Z,988.06
2018-02-14T05:27:32.752Z,988.05
2018-02-14T05:28:32.734Z,988.05
2018-02-14T05:29:32.704Z,988.07
2018-02-14T05:30:32.691Z,988.09
2018-02-14T05:31:32.696Z,988.10
2018-02-14T05:32:32.666Z,988.14
2018-02-14T05:33:32.653Z,988.17
2018-02-14T05:34:32.649Z,988.18
2018-02-14T05:35:32.627Z,988.14
2018-02-14T05:36:32.615Z,988.13
2018-02-14T05:37:32.601Z,988.12
2018-02-14T05:38:32.637Z,988.13
2018-02-14T05:39:32.574Z,988.16
2018-02-14T05:40:32.562Z,988.19
2018-02-14T05:41:32.549Z,988.19
2018-02-14T05:42:32.535Z,988.17
2018-02-14T05:43:32.524Z,988.17
2018-02-14T05:44:32.509Z,988.18
2018-02-14T05:45:32.494Z,988.16
2018-02-14T05:46:32.469Z,988.18
2018-02-14T05:47:32.463Z,988.12
2018-02-14T05:48:32.456Z,988.11
2018-02-14T05:49:32.443Z,988.17
2018-02-14T05:50:32.430Z,988.15
2018-02-14T05:51:32.416Z,988.16
2018-02-14T05:52:32.401Z,988.16
2018-02-14T05:53:32.380Z,988.18
2018-02-14T05:54:32.377Z,988.17
2018-02-14T05:55:32.364Z,988.20
2018-02-14T05:56:32.350Z,988.22
2018-02-14T05:57:32.338Z,988.23
2018-02-14T05:58:32.325Z,988.20
2018-02-14T05:59:32.312Z,988.18
2018-02-14T06:00:32.297Z,988.18
2018-02-14T06:01:32.374Z,988.18
2018-02-14T06:02:32.291Z,988.29
2018-02-14T06:03:32.259Z,988.17
2018-02-14T06:04:32.246Z,988.24
2018-02-14T06:05:32.244Z,988.24
2018-02-14T06:06:32.224Z,988.25
2018-02-14T06:07:32.205Z,988.25
2018-02-14T06:08:32.241Z,988.31
2018-02-14T06:09:32.217Z,988.31
2018-02-14T06:10:32.168Z,988.31
2018-02-14T06:11:32.154Z,988.38
2018-02-14T06:12:32.141Z,988.41
2018-02-14T06:13:32.128Z,988.42
2018-02-14T06:14:32.116Z,988.45
2018-02-14T06:15:32.100Z,988.45
2018-02-14T06:16:32.089Z,988.43
2018-02-14T06:17:32.080Z,988.42
2018-02-14T06:18:32.065Z,988.43
2018-02-14T06:19:32.050Z,988.46
2018-02-14T06:20:32.051Z,988.49
2018-02-14T06:21:32.036Z,988.48
2018-02-14T06:22:32.009Z,988.54
2018-02-14T06:23:31.995Z,988.54
2018-02-14T06:24:31.982Z,988.57
2018-02-14T06:25:31.970Z,988.60
2018-02-14T06:26:31.961Z,988.59
2018-02-14T06:27:31.941Z,988.62
2018-02-14T06:28:31.931Z,988.59
2018-02-14T06:29:31.917Z,988.63
2018-02-14T06:30:31.900Z,988.64
2018-02-14T06:31:31.889Z,988.66
2018-02-14T06:32:31.875Z,988.65
2018-02-14T06:33:31.856Z,988.67
2018-02-14T06:34:31.851Z,988.65
2018-02-14T06:35:31.837Z,988.67
2018-02-14T06:36:31.824Z,988.64
2018-02-14T06:37:31.811Z,988.70
2018-02-14T06:38:31.797Z,988.68
2018-02-14T06:39:31.783Z,988.72
2018-02-14T06:40:31.795Z,988.72
2018-02-14T06:41:31.796Z,988.74
2018-02-14T06:42:31.746Z,988.75
2018-02-14T06:43:31.734Z,988.76
2018-02-14T06:44:31.724Z,988.81
2018-02-14T06:45:31.707Z,988.83
2018-02-14T06:46:31.692Z,988.84
2018-02-14T06:47:31.671Z,988.86
2018-02-14T06:48:31.662Z,988.88
2018-02-14T06:49:31.649Z,988.89
2018-02-14T06:50:31.633Z,988.90
2018-02-14T06:51:31.634Z,988.92
2018-02-14T06:52:31.619Z,988.93
2018-02-14T06:53:31.594Z,988.92
2018-02-14T06:54:31.586Z,988.90
2018-02-14T06:55:31.575Z,988.95
2018-02-14T06:56:31.577Z,988.93
2018-02-14T06:57:31.545Z,988.96
2018-02-14T06:58:31.533Z,988.94
2018-02-14T06:59:31.530Z,988.94
2018-02-14T07:00:31.502Z,988.97
2018-02-14T07:01:31.502Z,989.00
2018-02-14T07:02:31.477Z,988.99
2018-02-14T07:03:31.472Z,988.97
2018-02-14T07:04:31.503Z,988.98
2018-02-14T07:05:31.440Z,989.01
2018-02-14T07:06:31.419Z,989.08
2018-02-14T07:07:31.410Z,988.99
2018-02-14T07:08:31.463Z,989.01
2018-02-14T07:09:31.388Z,989.04
2018-02-14T07:10:31.375Z,989.04
2018-02-14T07:11:31.361Z,989.08
2018-02-14T07:12:31.349Z,989.05
2018-02-14T07:13:31.337Z,989.11
2018-02-14T07:14:31.433Z,989.09
2018-02-14T07:15:31.327Z,989.10
2018-02-14T07:16:31.296Z,989.09
2018-02-14T07:17:31.283Z,989.10
2018-02-14T07:18:31.273Z,989.08
2018-02-14T07:19:31.251Z,989.11
2018-02-14T07:20:31.239Z,989.08
2018-02-14T07:21:31.232Z,989.12
2018-02-14T07:22:31.233Z,989.11
2018-02-14T07:23:31.274Z,989.14
2018-02-14T07:24:31.247Z,989.13
2018-02-14T07:25:31.207Z,989.15
2018-02-14T07:26:31.168Z,989.15
2018-02-14T07:27:31.150Z,989.22
2018-02-14T07:28:31.138Z,989.16
2018-02-14T07:29:31.124Z,989.17
2018-02-14T07:30:31.112Z,989.20
2018-02-14T07:31:31.098Z,989.20
2018-02-14T07:32:31.084Z,989.21
2018-02-14T07:33:31.083Z,989.21
2018-02-14T07:34:31.057Z,989.22
2018-02-14T07:35:31.045Z,989.21
2018-02-14T07:36:31.031Z,989.20
2018-02-14T07:37:31.018Z,989.19
2018-02-14T07:38:31.033Z,989.21
2018-02-14T07:39:30.991Z,989.16
2018-02-14T07:40:30.977Z,989.23
2018-02-14T07:41:30.965Z,989.24
2018-02-14T07:42:30.956Z,989.24
2018-02-14T07:43:30.939Z,989.24
2018-02-14T07:44:30.928Z,989.27
2018-02-14T07:45:30.913Z,989.30
2018-02-14T07:46:30.900Z,989.33
2018-02-14T07:49:10.429Z,989.33
2018-02-14T07:50:10.420Z,989.41
2018-02-14T07:52:02.484Z,989.33
2018-02-14T07:53:02.472Z,989.34
2018-02-14T07:54:54.534Z,989.35
2018-02-14T07:55:54.523Z,989.36
2018-02-14T07:57:46.604Z,989.37
2018-02-14T07:58:46.571Z,989.38
2018-02-14T08:00:38.629Z,989.38
2018-02-14T08:01:38.616Z,989.37
2018-02-14T08:03:30.678Z,989.42
2018-02-14T08:04:30.668Z,989.44
2018-02-14T08:06:22.730Z,989.45
2018-02-14T08:07:22.717Z,989.48
2018-02-14T08:09:14.782Z,989.47
2018-02-14T08:10:14.758Z,989.44
2018-02-14T08:12:06.828Z,989.48
2018-02-14T08:15:50.385Z,989.49
2018-02-14T08:16:50.373Z,989.51
2018-02-14T08:18:42.518Z,989.52
2018-02-14T08:19:42.511Z,989.52
2018-02-14T08:21:34.714Z,989.50
2018-02-14T08:22:34.658Z,989.52
2018-02-14T08:24:27.307Z,989.53
2018-02-14T08:25:27.297Z,989.54
2018-02-14T08:27:19.462Z,989.50
2018-02-14T08:28:19.438Z,989.52
2018-02-14T08:30:11.600Z,989.55
2018-02-14T08:31:11.581Z,989.54
2018-02-14T08:33:03.721Z,989.55
2018-02-14T08:34:03.706Z,989.54
2018-02-14T08:35:55.859Z,989.54
2018-02-14T08:36:55.848Z,989.53
2018-02-14T08:38:47.995Z,989.53
2018-02-14T08:39:47.985Z,989.51
2018-02-14T08:41:40.144Z,989.52
2018-02-14T08:42:40.131Z,989.51
2018-02-14T08:44:32.290Z,989.56
2018-02-14T08:45:32.270Z,989.58
2018-02-14T08:47:24.416Z,989.59
2018-02-14T08:48:24.406Z,989.60
2018-02-14T08:50:16.552Z,989.60
2018-02-14T08:51:16.541Z,989.65
2018-02-14T08:53:08.697Z,989.65
2018-02-14T08:54:08.668Z,989.72
2018-02-14T08:56:00.839Z,989.71
2018-02-14T08:57:00.807Z,989.73
2018-02-14T08:58:52.980Z,989.70
2018-02-14T08:59:52.953Z,989.72
2018-02-14T09:01:45.111Z,989.70
2018-02-14T09:02:45.092Z,989.73
2018-02-14T09:04:37.241Z,989.74
2018-02-14T09:05:37.228Z,989.78
2018-02-14T09:07:29.299Z,989.77
2018-02-14T09:08:29.283Z,989.81
2018-02-14T09:10:21.408Z,989.83
2018-02-14T09:11:21.402Z,989.85
2018-02-14T09:13:13.709Z,989.93
2018-02-14T09:14:13.575Z,989.91
2018-02-14T09:16:05.687Z,989.95
2018-02-14T09:17:05.677Z,989.94
2018-02-14T09:18:57.750Z,989.97
2018-02-14T09:19:57.738Z,989.95
2018-02-14T09:21:49.849Z,990.00
2018-02-14T09:22:49.872Z,990.00
2018-02-14T09:24:42.004Z,989.98
2018-02-14T09:25:41.985Z,990.00
2018-02-14T09:27:34.133Z,990.02
2018-02-14T09:28:34.128Z,990.02
2018-02-14T09:30:26.269Z,990.10
2018-02-14T09:31:26.271Z,990.11
2018-02-14T09:33:18.412Z,990.15
2018-02-14T09:34:18.404Z,990.10
2018-02-14T09:36:10.546Z,990.18
2018-02-14T09:37:10.534Z,990.15
2018-02-14T09:39:02.682Z,990.19
2018-02-14T09:40:02.668Z,990.19
2018-02-14T09:41:54.822Z,990.17
2018-02-14T09:42:54.800Z,990.15
2018-02-14T09:43:54.795Z,990.17
2018-02-14T09:44:54.783Z,990.14
2018-02-14T09:45:54.772Z,990.17
2018-02-14T09:46:54.759Z,990.17
2018-02-14T09:47:54.743Z,990.17
2018-02-14T09:48:54.730Z,990.15
2018-02-14T09:49:54.720Z,990.15
2018-02-14T09:50:54.703Z,990.17
2018-02-14T09:51:54.691Z,990.15
2018-02-14T09:52:54.677Z,990.14
2018-02-14T09:53:54.664Z,990.17
2018-02-14T09:54:54.651Z,990.16
2018-02-14T09:55:54.639Z,990.16
2018-02-14T09:56:54.624Z,990.17
2018-02-14T09:57:54.611Z,990.18
2018-02-14T09:58:54.599Z,990.19
2018-02-14T09:59:54.587Z,990.16
2018-02-14T10:00:54.572Z,990.15
2018-02-14T10:01:54.560Z,990.17
2018-02-14T10:02:54.548Z,990.17
2018-02-14T10:03:54.534Z,990.19
2018-02-14T10:04:54.521Z,990.20
2018-02-14T10:05:54.507Z,990.17
2018-02-14T10:06:54.494Z,990.16
2018-02-14T10:07:54.481Z,990.17
2018-02-14T10:08:54.468Z,990.17
2018-02-14T10:09:54.455Z,990.17
2018-02-14T10:10:54.428Z,990.10
2018-02-14T10:11:54.486Z,990.14
2018-02-14T10:12:54.441Z,990.11
2018-02-14T10:13:54.415Z,990.12
2018-02-14T10:14:54.388Z,990.11
2018-02-14T10:15:54.378Z,990.11
2018-02-14T10:16:54.362Z,990.14
2018-02-14T10:17:54.348Z,990.15
2018-02-14T10:18:54.336Z,990.20
2018-02-14T10:19:54.323Z,990.19
2018-02-14T10:20:54.311Z,990.16
2018-02-14T10:21:54.296Z,990.18
2018-02-14T10:22:54.282Z,990.15
2018-02-14T10:23:54.273Z,990.14
2018-02-14T10:24:54.261Z,990.20
2018-02-14T10:25:54.240Z,990.20
2018-02-14T10:26:54.235Z,990.16
2018-02-14T10:27:54.219Z,990.18
2018-02-14T10:28:54.206Z,990.21
2018-02-14T10:29:54.194Z,990.19
2018-02-14T10:30:54.180Z,990.19
2018-02-14T10:31:54.167Z,990.22
2018-02-14T10:32:54.153Z,990.20
2018-02-14T10:36:18.465Z,990.17
2018-02-14T10:37:18.451Z,990.17
2018-02-14T10:39:10.592Z,990.18
2018-02-14T10:40:10.584Z,990.20
2018-02-14T10:42:02.639Z,990.20
2018-02-14T10:43:02.630Z,990.17
2018-02-14T10:44:54.869Z,990.18
2018-02-14T10:45:54.863Z,990.21
2018-02-14T10:47:47.034Z,990.19
2018-02-14T10:48:47.003Z,990.23
2018-02-14T10:50:40.063Z,990.25
2018-02-14T10:51:40.059Z,990.24
2018-02-14T10:53:32.106Z,990.19
2018-02-14T10:54:32.092Z,990.18
2018-02-14T10:56:24.252Z,990.10
2018-02-14T10:57:24.239Z,990.11
2018-02-14T10:59:16.876Z,990.11
2018-02-14T11:00:16.873Z,990.05
2018-02-14T11:02:08.915Z,990.05
2018-02-14T11:03:08.906Z,990.05
2018-02-14T11:05:00.974Z,990.06
2018-02-14T11:06:00.952Z,990.02
2018-02-14T11:07:53.099Z,990.01
2018-02-14T11:08:53.090Z,989.98
2018-02-14T11:10:45.246Z,989.95
2018-02-14T11:11:45.235Z,989.96
2018-02-14T11:13:37.373Z,989.93
2018-02-14T11:14:37.361Z,989.93
2018-02-14T11:16:29.520Z,989.99
2018-02-14T11:17:29.514Z,989.94
2018-02-14T11:19:21.646Z,989.90
2018-02-14T11:20:21.637Z,989.87
2018-02-14T11:22:13.785Z,989.82
2018-02-14T11:23:13.775Z,989.82
2018-02-14T11:25:05.940Z,989.77
2018-02-14T11:26:05.922Z,989.80
2018-02-14T11:27:58.060Z,989.77
2018-02-14T11:28:58.052Z,989.78
2018-02-14T11:30:50.241Z,989.81
2018-02-14T11:31:50.198Z,989.82
2018-02-14T11:33:42.353Z,989.76
2018-02-14T11:34:42.336Z,989.74
2018-02-14T11:36:34.483Z,989.69
2018-02-14T11:37:34.474Z,989.65
2018-02-14T11:39:26.620Z,989.58
2018-02-14T11:40:26.607Z,989.59
2018-02-14T11:42:18.764Z,989.64
2018-02-14T11:43:18.748Z,989.64
2018-02-14T11:45:10.906Z,989.62
2018-02-14T11:46:10.886Z,989.63
2018-02-14T11:48:03.032Z,989.62
2018-02-14T11:49:03.022Z,989.69
2018-02-14T11:50:55.131Z,989.70
2018-02-14T11:51:55.121Z,989.73
2018-02-14T11:53:47.204Z,989.76
2018-02-14T11:54:47.195Z,989.79
2018-02-14T11:56:39.341Z,989.78
2018-02-14T11:57:39.331Z,989.76
2018-02-14T11:59:31.479Z,989.75
2018-02-14T12:00:31.467Z,989.73
2018-02-14T12:02:23.616Z,989.65
2018-02-14T12:03:23.607Z,989.63
2018-02-14T12:05:15.756Z,989.62
2018-02-14T12:06:15.746Z,989.62
2018-02-14T12:08:07.907Z,989.62
2018-02-14T12:09:07.882Z,989.63
2018-02-14T12:11:00.029Z,989.62
2018-02-14T12:12:00.025Z,989.62
2018-02-14T12:13:52.176Z,989.59
2018-02-14T12:14:52.156Z,989.62
2018-02-14T12:16:44.304Z,989.64
2018-02-14T12:17:44.294Z,989.58
2018-02-14T12:19:36.456Z,989.68
2018-02-14T12:20:36.453Z,989.63
2018-02-14T12:22:28.577Z,989.56
2018-02-14T12:23:28.563Z,989.58
2018-02-14T12:25:20.713Z,989.57
2018-02-14T12:26:20.705Z,989.55
2018-02-14T12:28:12.853Z,989.55
2018-02-14T12:29:12.844Z,989.55
2018-02-14T12:31:04.990Z,989.50
2018-02-14T12:32:04.981Z,989.48
2018-02-14T12:33:57.133Z,989.48
2018-02-14T12:34:57.118Z,989.50
2018-02-14T12:36:49.267Z,989.55
2018-02-14T12:37:49.254Z,989.49
2018-02-14T12:39:41.397Z,989.49
2018-02-14T12:40:41.394Z,989.50
2018-02-14T12:42:33.540Z,989.52
2018-02-14T12:43:33.540Z,989.51
2018-02-14T12:45:25.915Z,989.51
2018-02-14T12:46:25.842Z,989.53
2018-02-14T12:48:17.815Z,989.54
2018-02-14T12:49:17.807Z,989.52
2018-02-14T12:51:09.952Z,989.53
2018-02-14T12:52:09.943Z,989.51
2018-02-14T12:54:02.089Z,989.50
2018-02-14T12:55:02.081Z,989.51
2018-02-14T12:56:54.237Z,989.52
2018-02-14T12:57:54.217Z,989.49
2018-02-14T12:59:46.366Z,989.48
2018-02-14T13:00:46.357Z,989.51
2018-02-14T13:02:38.518Z,989.53
2018-02-14T13:03:38.493Z,989.58
2018-02-14T13:05:30.641Z,989.50
2018-02-14T13:06:30.631Z,989.53
2018-02-14T13:08:22.777Z,989.50
2018-02-14T13:09:22.769Z,989.52
2018-02-14T13:11:14.924Z,989.54
2018-02-14T13:12:14.907Z,989.54
2018-02-14T13:14:07.064Z,989.60
2018-02-14T13:15:07.041Z,989.57
2018-02-14T13:16:59.193Z,989.53
2018-02-14T13:17:59.189Z,989.49
2018-02-14T13:19:51.327Z,989.52
2018-02-14T13:20:51.319Z,989.47
2018-02-14T13:22:43.479Z,989.46
2018-02-14T13:23:43.453Z,989.49
2018-02-14T13:25:35.602Z,989.48
2018-02-14T13:26:35.603Z,989.48
2018-02-14T13:28:27.882Z,989.48
2018-02-14T13:29:27.729Z,989.50
2018-02-14T13:31:19.875Z,989.52
2018-02-14T13:32:19.865Z,989.52
2018-02-14T13:34:12.036Z,989.52
2018-02-14T13:35:12.004Z,989.53
2018-02-14T13:37:04.155Z,989.54
2018-02-14T13:38:04.140Z,989.53
2018-02-14T13:39:56.288Z,989.54
2018-02-14T13:40:56.278Z,989.54
2018-02-14T13:42:48.426Z,989.54
2018-02-14T13:43:48.416Z,989.50
2018-02-14T13:45:40.567Z,989.51
2018-02-14T13:46:40.551Z,989.53
2018-02-14T13:48:32.703Z,989.48
2018-02-14T13:49:32.691Z,989.51
2018-02-14T13:51:24.838Z,989.51
2018-02-14T13:52:24.833Z,989.51
2018-02-14T13:54:16.976Z,989.50
2018-02-14T13:55:16.965Z,989.46
2018-02-14T13:57:09.111Z,989.45
2018-02-14T13:58:09.103Z,989.42
2018-02-14T14:00:01.251Z,989.42
2018-02-14T14:01:01.230Z,989.43
2018-02-14T14:02:53.388Z,989.39
2018-02-14T14:03:53.378Z,989.41
2018-02-14T14:05:45.524Z,989.42
2018-02-14T14:06:45.516Z,989.43
2018-02-14T14:08:37.672Z,989.46
2018-02-14T14:09:37.652Z,989.44
2018-02-14T14:11:29.802Z,989.44
2018-02-14T14:12:29.790Z,989.47
2018-02-14T14:14:21.938Z,989.47